sensor_id;sensor_type;location;lat;lon;timestamp;P1;durP1;ratioP1;P2;durP2;ratioP2
70026;SDS011;57506;50.092;15.804;2023-07-16T00:00:46;2.20;;;0.80;;
70026;SDS011;57506;50.092;15.804;2023-07-16T00:03:11;2.70;;;1.40;;
70026;SDS011;57506;50.092;15.804;2023-07-16T00:05:39;2.50;;;1.10;;
70026;SDS011;57506;50.092;15.804;2023-07-16T00:08:04;2.40;;;1.10;;
70026;SDS011;57506;50.092;15.804;2023-07-16T00:10:32;2.50;;;1.15;;
70026;SDS011;57506;50.092;15.804;2023-07-16T00:13:01;2.40;;;1.00;;
70026;SDS011;57506;50.092;15.804;2023-07-16T00:15:27;3.05;;;1.85;;
70026;SDS011;57506;50.092;15.804;2023-07-16T00:17:53;2.45;;;0.98;;
70026;SDS011;57506;50.092;15.804;2023-07-16T00:20:20;2.50;;;1.20;;
70026;SDS011;57506;50.092;15.804;2023-07-16T00:22:45;2.60;;;1.23;;
70026;SDS011;57506;50.092;15.804;2023-07-16T00:25:11;4.75;;;2.47;;
70026;SDS011;57506;50.092;15.804;2023-07-16T00:27:36;2.20;;;0.90;;
70026;SDS011;57506;50.092;15.804;2023-07-16T00:30:02;2.27;;;0.77;;
70026;SDS011;57506;50.092;15.804;2023-07-16T00:32:29;2.30;;;0.90;;
70026;SDS011;57506;50.092;15.804;2023-07-16T00:34:54;2.28;;;0.90;;
70026;SDS011;57506;50.092;15.804;2023-07-16T00:37:20;2.13;;;0.87;;
70026;SDS011;57506;50.092;15.804;2023-07-16T00:39:45;2.30;;;0.97;;
70026;SDS011;57506;50.092;15.804;2023-07-16T00:42:11;2.55;;;1.02;;
70026;SDS011;57506;50.092;15.804;2023-07-16T00:44:36;2.40;;;1.13;;
70026;SDS011;57506;50.092;15.804;2023-07-16T00:47:02;3.10;;;2.17;;
70026;SDS011;57506;50.092;15.804;2023-07-16T00:49:28;2.50;;;1.20;;
70026;SDS011;57506;50.092;15.804;2023-07-16T00:51:54;2.42;;;1.08;;
70026;SDS011;57506;50.092;15.804;2023-07-16T00:54:20;2.50;;;1.30;;
70026;SDS011;57506;50.092;15.804;2023-07-16T00:56:47;2.53;;;1.30;;
70026;SDS011;57506;50.092;15.804;2023-07-16T00:59:13;2.42;;;1.05;;
70026;SDS011;57506;50.092;15.804;2023-07-16T01:01:38;2.40;;;1.10;;
70026;SDS011;57506;50.092;15.804;2023-07-16T01:04:05;2.40;;;1.00;;
70026;SDS011;57506;50.092;15.804;2023-07-16T01:11:28;2.38;;;1.00;;
70026;SDS011;57506;50.092;15.804;2023-07-16T01:13:54;2.90;;;1.70;;
70026;SDS011;57506;50.092;15.804;2023-07-16T01:16:22;2.10;;;0.65;;
70026;SDS011;57506;50.092;15.804;2023-07-16T01:18:49;2.08;;;0.70;;
70026;SDS011;57506;50.092;15.804;2023-07-16T01:21:15;2.30;;;0.90;;
70026;SDS011;57506;50.092;15.804;2023-07-16T01:32:12;2.20;;;0.80;;
70026;SDS011;57506;50.092;15.804;2023-07-16T01:34:39;2.40;;;0.90;;
70026;SDS011;57506;50.092;15.804;2023-07-16T01:37:06;2.40;;;1.00;;
70026;SDS011;57506;50.092;15.804;2023-07-16T01:39:32;2.00;;;0.60;;
70026;SDS011;57506;50.092;15.804;2023-07-16T01:41:58;2.38;;;0.90;;
70026;SDS011;57506;50.092;15.804;2023-07-16T01:44:23;2.40;;;0.90;;
70026;SDS011;57506;50.092;15.804;2023-07-16T01:46:59;2.15;;;0.60;;
70026;SDS011;57506;50.092;15.804;2023-07-16T01:49:31;2.30;;;0.80;;
70026;SDS011;57506;50.092;15.804;2023-07-16T01:51:56;2.20;;;0.70;;
70026;SDS011;57506;50.092;15.804;2023-07-16T01:54:22;2.40;;;1.10;;
70026;SDS011;57506;50.092;15.804;2023-07-16T01:56:47;2.30;;;0.80;;
70026;SDS011;57506;50.092;15.804;2023-07-16T01:59:13;2.30;;;0.90;;
70026;SDS011;57506;50.092;15.804;2023-07-16T02:01:38;2.30;;;0.73;;
70026;SDS011;57506;50.092;15.804;2023-07-16T02:04:04;2.73;;;1.63;;
70026;SDS011;57506;50.092;15.804;2023-07-16T02:06:29;2.30;;;0.80;;
70026;SDS011;57506;50.092;15.804;2023-07-16T02:08:55;2.20;;;0.87;;
70026;SDS011;57506;50.092;15.804;2023-07-16T02:11:20;2.30;;;0.80;;
70026;SDS011;57506;50.092;15.804;2023-07-16T02:13:46;5.00;;;1.70;;
70026;SDS011;57506;50.092;15.804;2023-07-16T02:16:12;2.07;;;0.67;;
70026;SDS011;57506;50.092;15.804;2023-07-16T02:18:37;2.40;;;0.90;;
70026;SDS011;57506;50.092;15.804;2023-07-16T02:21:03;2.20;;;0.70;;
70026;SDS011;57506;50.092;15.804;2023-07-16T02:23:29;2.30;;;0.90;;
70026;SDS011;57506;50.092;15.804;2023-07-16T02:25:54;2.10;;;0.63;;
70026;SDS011;57506;50.092;15.804;2023-07-16T02:28:20;2.20;;;0.70;;
70026;SDS011;57506;50.092;15.804;2023-07-16T02:30:45;2.38;;;0.90;;
70026;SDS011;57506;50.092;15.804;2023-07-16T02:33:11;2.30;;;0.83;;
70026;SDS011;57506;50.092;15.804;2023-07-16T02:35:36;2.60;;;1.30;;
70026;SDS011;57506;50.092;15.804;2023-07-16T02:38:02;2.50;;;1.13;;
70026;SDS011;57506;50.092;15.804;2023-07-16T02:40:27;2.70;;;1.30;;
70026;SDS011;57506;50.092;15.804;2023-07-16T02:42:53;4.50;;;2.53;;
70026;SDS011;57506;50.092;15.804;2023-07-16T02:45:18;2.75;;;1.45;;
70026;SDS011;57506;50.092;15.804;2023-07-16T02:47:44;2.00;;;0.50;;
70026;SDS011;57506;50.092;15.804;2023-07-16T02:50:09;1.90;;;0.37;;
70026;SDS011;57506;50.092;15.804;2023-07-16T02:52:35;2.30;;;0.90;;
70026;SDS011;57506;50.092;15.804;2023-07-16T02:55:01;2.30;;;0.80;;
70026;SDS011;57506;50.092;15.804;2023-07-16T02:57:27;2.30;;;0.80;;
70026;SDS011;57506;50.092;15.804;2023-07-16T02:59:53;2.25;;;0.80;;
70026;SDS011;57506;50.092;15.804;2023-07-16T03:02:19;18.43;;;1.90;;
70026;SDS011;57506;50.092;15.804;2023-07-16T03:04:44;2.42;;;1.00;;
70026;SDS011;57506;50.092;15.804;2023-07-16T03:07:09;3.33;;;1.50;;
70026;SDS011;57506;50.092;15.804;2023-07-16T03:09:35;2.30;;;0.80;;
70026;SDS011;57506;50.092;15.804;2023-07-16T03:12:00;2.40;;;0.90;;
70026;SDS011;57506;50.092;15.804;2023-07-16T03:14:26;2.27;;;0.77;;
70026;SDS011;57506;50.092;15.804;2023-07-16T03:16:51;3.03;;;1.60;;
70026;SDS011;57506;50.092;15.804;2023-07-16T03:19:17;3.93;;;2.17;;
70026;SDS011;57506;50.092;15.804;2023-07-16T03:21:42;2.50;;;1.17;;
70026;SDS011;57506;50.092;15.804;2023-07-16T03:24:08;2.20;;;0.60;;
70026;SDS011;57506;50.092;15.804;2023-07-16T03:26:33;4.00;;;1.70;;
70026;SDS011;57506;50.092;15.804;2023-07-16T03:28:59;2.30;;;0.80;;
70026;SDS011;57506;50.092;15.804;2023-07-16T03:31:24;3.73;;;2.40;;
70026;SDS011;57506;50.092;15.804;2023-07-16T03:33:50;2.30;;;0.87;;
70026;SDS011;57506;50.092;15.804;2023-07-16T03:36:16;2.30;;;0.73;;
70026;SDS011;57506;50.092;15.804;2023-07-16T03:38:43;2.40;;;1.00;;
70026;SDS011;57506;50.092;15.804;2023-07-16T03:41:08;3.05;;;1.85;;
70026;SDS011;57506;50.092;15.804;2023-07-16T03:43:33;2.50;;;1.20;;
70026;SDS011;57506;50.092;15.804;2023-07-16T03:45:59;2.30;;;0.80;;
70026;SDS011;57506;50.092;15.804;2023-07-16T03:48:25;3.10;;;1.83;;
70026;SDS011;57506;50.092;15.804;2023-07-16T03:50:50;2.40;;;1.00;;
70026;SDS011;57506;50.092;15.804;2023-07-16T03:53:16;3.07;;;2.27;;
70026;SDS011;57506;50.092;15.804;2023-07-16T03:55:41;2.30;;;0.80;;
70026;SDS011;57506;50.092;15.804;2023-07-16T03:58:07;3.17;;;1.88;;
70026;SDS011;57506;50.092;15.804;2023-07-16T04:00:32;2.30;;;0.70;;
70026;SDS011;57506;50.092;15.804;2023-07-16T04:02:58;2.30;;;0.85;;
70026;SDS011;57506;50.092;15.804;2023-07-16T04:05:24;2.97;;;1.10;;
70026;SDS011;57506;50.092;15.804;2023-07-16T04:07:50;2.50;;;1.10;;
70026;SDS011;57506;50.092;15.804;2023-07-16T04:10:16;2.30;;;0.90;;
70026;SDS011;57506;50.092;15.804;2023-07-16T04:12:42;2.20;;;0.75;;
70026;SDS011;57506;50.092;15.804;2023-07-16T04:15:08;2.40;;;1.00;;
70026;SDS011;57506;50.092;15.804;2023-07-16T04:17:37;2.30;;;0.80;;
70026;SDS011;57506;50.092;15.804;2023-07-16T04:20:02;2.30;;;0.60;;
70026;SDS011;57506;50.092;15.804;2023-07-16T04:22:31;2.10;;;0.50;;
70026;SDS011;57506;50.092;15.804;2023-07-16T04:24:58;2.38;;;0.90;;
70026;SDS011;57506;50.092;15.804;2023-07-16T04:27:23;2.20;;;0.63;;
70026;SDS011;57506;50.092;15.804;2023-07-16T04:29:49;2.40;;;1.00;;
70026;SDS011;57506;50.092;15.804;2023-07-16T04:32:14;2.35;;;1.00;;
70026;SDS011;57506;50.092;15.804;2023-07-16T04:34:40;2.40;;;1.03;;
70026;SDS011;57506;50.092;15.804;2023-07-16T04:37:05;2.87;;;1.67;;
70026;SDS011;57506;50.092;15.804;2023-07-16T04:39:31;2.80;;;1.30;;
70026;SDS011;57506;50.092;15.804;2023-07-16T04:41:56;8.33;;;2.10;;
70026;SDS011;57506;50.092;15.804;2023-07-16T04:44:22;3.67;;;1.73;;
70026;SDS011;57506;50.092;15.804;2023-07-16T04:46:47;3.30;;;1.57;;
70026;SDS011;57506;50.092;15.804;2023-07-16T04:49:13;2.40;;;0.93;;
70026;SDS011;57506;50.092;15.804;2023-07-16T04:51:38;3.77;;;2.00;;
70026;SDS011;57506;50.092;15.804;2023-07-16T04:54:04;5.50;;;3.67;;
70026;SDS011;57506;50.092;15.804;2023-07-16T04:56:29;5.93;;;3.40;;
70026;SDS011;57506;50.092;15.804;2023-07-16T04:58:55;4.78;;;2.72;;
70026;SDS011;57506;50.092;15.804;2023-07-16T05:01:20;4.70;;;2.83;;
70026;SDS011;57506;50.092;15.804;2023-07-16T05:03:46;5.25;;;2.88;;
70026;SDS011;57506;50.092;15.804;2023-07-16T05:06:11;5.23;;;2.97;;
70026;SDS011;57506;50.092;15.804;2023-07-16T05:08:37;5.60;;;3.20;;
70026;SDS011;57506;50.092;15.804;2023-07-16T05:11:02;2.53;;;1.15;;
70026;SDS011;57506;50.092;15.804;2023-07-16T05:13:28;5.67;;;1.93;;
70026;SDS011;57506;50.092;15.804;2023-07-16T05:15:53;3.03;;;1.57;;
70026;SDS011;57506;50.092;15.804;2023-07-16T05:18:19;3.33;;;1.63;;
70026;SDS011;57506;50.092;15.804;2023-07-16T05:20:48;4.70;;;2.80;;
70026;SDS011;57506;50.092;15.804;2023-07-16T05:23:14;18.02;;;2.83;;
70026;SDS011;57506;50.092;15.804;2023-07-16T05:25:45;8.37;;;4.20;;
70026;SDS011;57506;50.092;15.804;2023-07-16T05:28:14;4.18;;;2.45;;
70026;SDS011;57506;50.092;15.804;2023-07-16T05:30:40;3.83;;;1.88;;
70026;SDS011;57506;50.092;15.804;2023-07-16T05:33:06;5.53;;;3.37;;
70026;SDS011;57506;50.092;15.804;2023-07-16T05:35:31;5.15;;;2.35;;
70026;SDS011;57506;50.092;15.804;2023-07-16T05:37:57;6.53;;;3.73;;
70026;SDS011;57506;50.092;15.804;2023-07-16T05:40:22;6.90;;;3.75;;
70026;SDS011;57506;50.092;15.804;2023-07-16T05:42:48;4.83;;;3.20;;
70026;SDS011;57506;50.092;15.804;2023-07-16T05:45:13;3.40;;;1.57;;
70026;SDS011;57506;50.092;15.804;2023-07-16T05:47:39;7.05;;;3.38;;
70026;SDS011;57506;50.092;15.804;2023-07-16T05:50:05;5.97;;;3.93;;
70026;SDS011;57506;50.092;15.804;2023-07-16T05:52:31;5.78;;;3.70;;
70026;SDS011;57506;50.092;15.804;2023-07-16T05:54:56;5.90;;;3.73;;
70026;SDS011;57506;50.092;15.804;2023-07-16T05:57:22;7.22;;;3.95;;
70026;SDS011;57506;50.092;15.804;2023-07-16T05:59:47;7.83;;;4.17;;
70026;SDS011;57506;50.092;15.804;2023-07-16T06:02:13;6.00;;;4.40;;
70026;SDS011;57506;50.092;15.804;2023-07-16T06:04:38;10.02;;;3.80;;
70026;SDS011;57506;50.092;15.804;2023-07-16T06:07:04;4.70;;;2.80;;
70026;SDS011;57506;50.092;15.804;2023-07-16T06:09:30;3.58;;;2.00;;
70026;SDS011;57506;50.092;15.804;2023-07-16T06:11:55;6.90;;;3.67;;
70026;SDS011;57506;50.092;15.804;2023-07-16T06:14:21;6.63;;;2.97;;
70026;SDS011;57506;50.092;15.804;2023-07-16T06:16:46;5.47;;;3.60;;
70026;SDS011;57506;50.092;15.804;2023-07-16T06:19:12;8.70;;;3.33;;
70026;SDS011;57506;50.092;15.804;2023-07-16T06:21:37;7.20;;;4.33;;
70026;SDS011;57506;50.092;15.804;2023-07-16T06:24:03;6.10;;;3.63;;
70026;SDS011;57506;50.092;15.804;2023-07-16T06:26:29;5.77;;;3.90;;
70026;SDS011;57506;50.092;15.804;2023-07-16T06:28:54;7.35;;;3.15;;
70026;SDS011;57506;50.092;15.804;2023-07-16T06:31:20;11.03;;;3.13;;
70026;SDS011;57506;50.092;15.804;2023-07-16T06:33:45;4.10;;;2.53;;
70026;SDS011;57506;50.092;15.804;2023-07-16T06:36:12;4.68;;;2.25;;
70026;SDS011;57506;50.092;15.804;2023-07-16T06:38:38;8.10;;;2.65;;
70026;SDS011;57506;50.092;15.804;2023-07-16T06:41:04;6.87;;;2.53;;
70026;SDS011;57506;50.092;15.804;2023-07-16T06:43:30;3.88;;;2.00;;
70026;SDS011;57506;50.092;15.804;2023-07-16T06:45:56;4.72;;;2.42;;
70026;SDS011;57506;50.092;15.804;2023-07-16T06:48:22;4.10;;;2.03;;
70026;SDS011;57506;50.092;15.804;2023-07-16T06:50:49;6.05;;;2.30;;
70026;SDS011;57506;50.092;15.804;2023-07-16T06:53:15;4.88;;;2.47;;
70026;SDS011;57506;50.092;15.804;2023-07-16T06:55:40;5.17;;;2.57;;
70026;SDS011;57506;50.092;15.804;2023-07-16T06:58:09;4.32;;;2.10;;
70026;SDS011;57506;50.092;15.804;2023-07-16T07:00:36;6.78;;;2.72;;
70026;SDS011;57506;50.092;15.804;2023-07-16T07:03:01;3.43;;;1.67;;
70026;SDS011;57506;50.092;15.804;2023-07-16T07:05:27;5.13;;;2.23;;
70026;SDS011;57506;50.092;15.804;2023-07-16T07:07:55;2.90;;;1.55;;
70026;SDS011;57506;50.092;15.804;2023-07-16T07:10:20;2.20;;;0.70;;
70026;SDS011;57506;50.092;15.804;2023-07-16T07:12:46;3.27;;;1.40;;
70026;SDS011;57506;50.092;15.804;2023-07-16T07:15:12;3.00;;;1.85;;
70026;SDS011;57506;50.092;15.804;2023-07-16T07:17:37;2.07;;;0.60;;
70026;SDS011;57506;50.092;15.804;2023-07-16T07:20:04;2.20;;;0.73;;
70026;SDS011;57506;50.092;15.804;2023-07-16T07:22:31;3.75;;;1.80;;
70026;SDS011;57506;50.092;15.804;2023-07-16T07:24:57;2.60;;;1.00;;
70026;SDS011;57506;50.092;15.804;2023-07-16T07:27:23;3.30;;;1.38;;
70026;SDS011;57506;50.092;15.804;2023-07-16T07:29:49;3.97;;;1.70;;
70026;SDS011;57506;50.092;15.804;2023-07-16T07:32:18;3.25;;;1.58;;
70026;SDS011;57506;50.092;15.804;2023-07-16T07:34:45;2.25;;;0.65;;
70026;SDS011;57506;50.092;15.804;2023-07-16T07:37:11;2.00;;;0.50;;
70026;SDS011;57506;50.092;15.804;2023-07-16T07:39:37;2.00;;;0.50;;
70026;SDS011;57506;50.092;15.804;2023-07-16T07:42:02;2.60;;;1.20;;
70026;SDS011;57506;50.092;15.804;2023-07-16T07:44:28;2.40;;;0.90;;
70026;SDS011;57506;50.092;15.804;2023-07-16T07:46:54;2.30;;;0.80;;
70026;SDS011;57506;50.092;15.804;2023-07-16T07:49:20;2.20;;;0.60;;
70026;SDS011;57506;50.092;15.804;2023-07-16T07:51:45;1.90;;;0.43;;
70026;SDS011;57506;50.092;15.804;2023-07-16T07:54:12;2.10;;;0.70;;
70026;SDS011;57506;50.092;15.804;2023-07-16T07:56:38;2.08;;;0.63;;
70026;SDS011;57506;50.092;15.804;2023-07-16T07:59:04;2.05;;;0.50;;
70026;SDS011;57506;50.092;15.804;2023-07-16T08:01:29;2.20;;;0.50;;
70026;SDS011;57506;50.092;15.804;2023-07-16T08:03:55;2.10;;;0.60;;
70026;SDS011;57506;50.092;15.804;2023-07-16T08:06:20;3.47;;;1.47;;
70026;SDS011;57506;50.092;15.804;2023-07-16T08:08:46;2.70;;;1.03;;
70026;SDS011;57506;50.092;15.804;2023-07-16T08:11:12;4.75;;;1.10;;
70026;SDS011;57506;50.092;15.804;2023-07-16T08:13:37;2.30;;;0.80;;
70026;SDS011;57506;50.092;15.804;2023-07-16T08:16:03;2.30;;;0.70;;
70026;SDS011;57506;50.092;15.804;2023-07-16T08:18:28;2.10;;;0.60;;
70026;SDS011;57506;50.092;15.804;2023-07-16T08:20:54;2.40;;;0.90;;
70026;SDS011;57506;50.092;15.804;2023-07-16T08:23:20;2.40;;;0.90;;
70026;SDS011;57506;50.092;15.804;2023-07-16T08:25:45;3.97;;;1.67;;
70026;SDS011;57506;50.092;15.804;2023-07-16T08:28:11;4.83;;;2.13;;
70026;SDS011;57506;50.092;15.804;2023-07-16T08:30:37;3.53;;;1.77;;
70026;SDS011;57506;50.092;15.804;2023-07-16T08:33:02;4.17;;;1.50;;
70026;SDS011;57506;50.092;15.804;2023-07-16T08:35:28;2.70;;;1.10;;
70026;SDS011;57506;50.092;15.804;2023-07-16T08:37:54;4.03;;;1.90;;
70026;SDS011;57506;50.092;15.804;2023-07-16T08:40:19;3.65;;;1.25;;
70026;SDS011;57506;50.092;15.804;2023-07-16T08:42:46;2.20;;;0.70;;
70026;SDS011;57506;50.092;15.804;2023-07-16T08:45:14;3.58;;;1.65;;
70026;SDS011;57506;50.092;15.804;2023-07-16T08:47:41;2.58;;;0.98;;
70026;SDS011;57506;50.092;15.804;2023-07-16T08:50:07;2.20;;;0.70;;
70026;SDS011;57506;50.092;15.804;2023-07-16T08:52:33;4.32;;;1.30;;
70026;SDS011;57506;50.092;15.804;2023-07-16T08:54:58;2.42;;;0.82;;
70026;SDS011;57506;50.092;15.804;2023-07-16T08:57:24;2.20;;;0.70;;
70026;SDS011;57506;50.092;15.804;2023-07-16T08:59:51;2.47;;;0.93;;
70026;SDS011;57506;50.092;15.804;2023-07-16T09:02:17;2.90;;;1.37;;
70026;SDS011;57506;50.092;15.804;2023-07-16T09:04:45;4.00;;;1.73;;
70026;SDS011;57506;50.092;15.804;2023-07-16T09:07:12;7.38;;;2.67;;
70026;SDS011;57506;50.092;15.804;2023-07-16T09:09:38;3.30;;;1.63;;
70026;SDS011;57506;50.092;15.804;2023-07-16T09:12:04;3.88;;;1.98;;
70026;SDS011;57506;50.092;15.804;2023-07-16T09:14:30;2.97;;;1.45;;
70026;SDS011;57506;50.092;15.804;2023-07-16T09:16:55;5.10;;;2.27;;
70026;SDS011;57506;50.092;15.804;2023-07-16T09:19:21;2.70;;;1.02;;
70026;SDS011;57506;50.092;15.804;2023-07-16T09:21:50;4.33;;;1.37;;
70026;SDS011;57506;50.092;15.804;2023-07-16T09:24:18;4.68;;;2.05;;
70026;SDS011;57506;50.092;15.804;2023-07-16T09:26:47;3.10;;;1.50;;
70026;SDS011;57506;50.092;15.804;2023-07-16T09:29:24;2.72;;;1.00;;
70026;SDS011;57506;50.092;15.804;2023-07-16T09:34:20;3.40;;;1.10;;
70026;SDS011;57506;50.092;15.804;2023-07-16T09:36:49;2.13;;;0.63;;
70026;SDS011;57506;50.092;15.804;2023-07-16T09:39:18;2.60;;;0.98;;
70026;SDS011;57506;50.092;15.804;2023-07-16T09:41:48;2.30;;;0.87;;
70026;SDS011;57506;50.092;15.804;2023-07-16T09:44:14;2.53;;;1.10;;
70026;SDS011;57506;50.092;15.804;2023-07-16T09:46:41;2.20;;;0.80;;
70026;SDS011;57506;50.092;15.804;2023-07-16T09:49:08;2.30;;;0.73;;
70026;SDS011;57506;50.092;15.804;2023-07-16T09:51:35;3.00;;;1.48;;
70026;SDS011;57506;50.092;15.804;2023-07-16T09:54:01;4.30;;;0.80;;
70026;SDS011;57506;50.092;15.804;2023-07-16T09:56:31;3.20;;;1.20;;
70026;SDS011;57506;50.092;15.804;2023-07-16T09:59:02;3.80;;;1.55;;
70026;SDS011;57506;50.092;15.804;2023-07-16T10:01:30;2.88;;;1.30;;
70026;SDS011;57506;50.092;15.804;2023-07-16T10:03:56;4.37;;;1.90;;
70026;SDS011;57506;50.092;15.804;2023-07-16T10:06:22;2.80;;;1.20;;
70026;SDS011;57506;50.092;15.804;2023-07-16T10:08:50;2.40;;;0.90;;
70026;SDS011;57506;50.092;15.804;2023-07-16T10:11:17;3.63;;;1.60;;
70026;SDS011;57506;50.092;15.804;2023-07-16T10:13:43;3.25;;;1.88;;
70026;SDS011;57506;50.092;15.804;2023-07-16T10:16:19;3.05;;;1.50;;
70026;SDS011;57506;50.092;15.804;2023-07-16T10:18:50;2.50;;;1.20;;
70026;SDS011;57506;50.092;15.804;2023-07-16T10:22:37;2.40;;;0.95;;
70026;SDS011;57506;50.092;15.804;2023-07-16T10:25:29;2.97;;;1.30;;
70026;SDS011;57506;50.092;15.804;2023-07-16T10:27:54;2.60;;;1.23;;
70026;SDS011;57506;50.092;15.804;2023-07-16T10:30:20;4.10;;;1.90;;
70026;SDS011;57506;50.092;15.804;2023-07-16T10:32:47;6.22;;;1.90;;
70026;SDS011;57506;50.092;15.804;2023-07-16T10:35:12;3.23;;;1.20;;
70026;SDS011;57506;50.092;15.804;2023-07-16T10:37:39;3.22;;;1.70;;
70026;SDS011;57506;50.092;15.804;2023-07-16T10:40:05;4.72;;;1.20;;
70026;SDS011;57506;50.092;15.804;2023-07-16T10:42:36;2.75;;;1.08;;
70026;SDS011;57506;50.092;15.804;2023-07-16T10:45:02;3.50;;;1.73;;
70026;SDS011;57506;50.092;15.804;2023-07-16T10:47:30;2.85;;;1.25;;
70026;SDS011;57506;50.092;15.804;2023-07-16T10:50:00;3.88;;;1.88;;
70026;SDS011;57506;50.092;15.804;2023-07-16T10:52:29;3.03;;;1.70;;
70026;SDS011;57506;50.092;15.804;2023-07-16T10:54:54;3.47;;;2.00;;
70026;SDS011;57506;50.092;15.804;2023-07-16T10:57:23;3.13;;;1.77;;
70026;SDS011;57506;50.092;15.804;2023-07-16T10:59:56;2.65;;;1.20;;
70026;SDS011;57506;50.092;15.804;2023-07-16T11:02:22;3.88;;;2.10;;
70026;SDS011;57506;50.092;15.804;2023-07-16T11:04:50;3.83;;;2.03;;
70026;SDS011;57506;50.092;15.804;2023-07-16T11:07:19;9.57;;;2.60;;
70026;SDS011;57506;50.092;15.804;2023-07-16T11:12:32;5.35;;;1.90;;
70026;SDS011;57506;50.092;15.804;2023-07-16T11:14:57;4.53;;;2.58;;
70026;SDS011;57506;50.092;15.804;2023-07-16T11:17:23;7.03;;;2.20;;
70026;SDS011;57506;50.092;15.804;2023-07-16T11:19:53;3.60;;;2.17;;
70026;SDS011;57506;50.092;15.804;2023-07-16T11:22:24;6.13;;;2.08;;
70026;SDS011;57506;50.092;15.804;2023-07-16T11:24:52;2.70;;;1.30;;
70026;SDS011;57506;50.092;15.804;2023-07-16T11:27:22;3.67;;;1.90;;
70026;SDS011;57506;50.092;15.804;2023-07-16T11:29:50;3.05;;;1.80;;
70026;SDS011;57506;50.092;15.804;2023-07-16T11:34:55;4.95;;;2.28;;
70026;SDS011;57506;50.092;15.804;2023-07-16T11:37:26;3.33;;;1.98;;
70026;SDS011;57506;50.092;15.804;2023-07-16T11:40:04;5.23;;;2.53;;
70026;SDS011;57506;50.092;15.804;2023-07-16T11:42:32;3.33;;;2.00;;
70026;SDS011;57506;50.092;15.804;2023-07-16T11:44:59;5.85;;;2.22;;
70026;SDS011;57506;50.092;15.804;2023-07-16T11:47:25;6.40;;;1.83;;
70026;SDS011;57506;50.092;15.804;2023-07-16T11:49:51;3.60;;;1.98;;
70026;SDS011;57506;50.092;15.804;2023-07-16T12:19:34;5.07;;;2.30;;
70026;SDS011;57506;50.092;15.804;2023-07-16T12:22:03;3.17;;;1.47;;
70026;SDS011;57506;50.092;15.804;2023-07-16T12:24:29;3.03;;;1.42;;
70026;SDS011;57506;50.092;15.804;2023-07-16T12:26:55;3.30;;;1.80;;
70026;SDS011;57506;50.092;15.804;2023-07-16T12:29:21;4.17;;;2.63;;
70026;SDS011;57506;50.092;15.804;2023-07-16T12:31:46;2.90;;;1.60;;
70026;SDS011;57506;50.092;15.804;2023-07-16T12:34:12;3.90;;;2.20;;
70026;SDS011;57506;50.092;15.804;2023-07-16T12:36:38;3.30;;;1.85;;
70026;SDS011;57506;50.092;15.804;2023-07-16T12:39:03;5.00;;;2.73;;
70026;SDS011;57506;50.092;15.804;2023-07-16T12:41:29;3.80;;;2.00;;
70026;SDS011;57506;50.092;15.804;2023-07-16T12:43:54;3.90;;;2.30;;
70026;SDS011;57506;50.092;15.804;2023-07-16T12:46:20;4.27;;;2.50;;
70026;SDS011;57506;50.092;15.804;2023-07-16T12:48:46;3.83;;;2.55;;
70026;SDS011;57506;50.092;15.804;2023-07-16T12:51:11;4.17;;;2.17;;
70026;SDS011;57506;50.092;15.804;2023-07-16T12:53:37;7.83;;;2.20;;
70026;SDS011;57506;50.092;15.804;2023-07-16T12:56:03;4.95;;;2.92;;
70026;SDS011;57506;50.092;15.804;2023-07-16T12:58:29;4.82;;;2.47;;
70026;SDS011;57506;50.092;15.804;2023-07-16T13:00:55;4.03;;;2.43;;
70026;SDS011;57506;50.092;15.804;2023-07-16T13:03:20;2.70;;;1.48;;
70026;SDS011;57506;50.092;15.804;2023-07-16T13:05:46;3.10;;;1.60;;
70026;SDS011;57506;50.092;15.804;2023-07-16T13:08:12;2.50;;;1.20;;
70026;SDS011;57506;50.092;15.804;2023-07-16T13:10:39;2.55;;;1.33;;
70026;SDS011;57506;50.092;15.804;2023-07-16T13:13:05;4.70;;;2.27;;
70026;SDS011;57506;50.092;15.804;2023-07-16T13:15:32;2.67;;;1.27;;
70026;SDS011;57506;50.092;15.804;2023-07-16T13:17:58;3.03;;;1.63;;
70026;SDS011;57506;50.092;15.804;2023-07-16T13:20:24;2.93;;;1.50;;
70026;SDS011;57506;50.092;15.804;2023-07-16T13:22:50;3.78;;;2.22;;
70026;SDS011;57506;50.092;15.804;2023-07-16T13:25:16;2.70;;;1.45;;
70026;SDS011;57506;50.092;15.804;2023-07-16T13:27:43;3.23;;;1.83;;
70026;SDS011;57506;50.092;15.804;2023-07-16T13:30:09;7.10;;;2.00;;
70026;SDS011;57506;50.092;15.804;2023-07-16T13:32:35;3.05;;;1.70;;
70026;SDS011;57506;50.092;15.804;2023-07-16T13:35:03;3.57;;;2.17;;
70026;SDS011;57506;50.092;15.804;2023-07-16T13:37:29;3.00;;;1.70;;
70026;SDS011;57506;50.092;15.804;2023-07-16T13:39:55;3.83;;;2.70;;
70026;SDS011;57506;50.092;15.804;2023-07-16T13:42:21;4.22;;;2.97;;
70026;SDS011;57506;50.092;15.804;2023-07-16T13:44:46;3.60;;;2.53;;
70026;SDS011;57506;50.092;15.804;2023-07-16T13:47:12;4.83;;;3.07;;
70026;SDS011;57506;50.092;15.804;2023-07-16T13:49:38;3.17;;;1.80;;
70026;SDS011;57506;50.092;15.804;2023-07-16T13:52:03;4.35;;;2.50;;
70026;SDS011;57506;50.092;15.804;2023-07-16T13:54:29;3.40;;;2.00;;
70026;SDS011;57506;50.092;15.804;2023-07-16T13:56:54;7.70;;;2.60;;
70026;SDS011;57506;50.092;15.804;2023-07-16T13:59:20;3.10;;;1.50;;
70026;SDS011;57506;50.092;15.804;2023-07-16T14:01:46;3.23;;;1.93;;
70026;SDS011;57506;50.092;15.804;2023-07-16T14:04:12;2.97;;;1.77;;
70026;SDS011;57506;50.092;15.804;2023-07-16T14:06:38;3.65;;;2.13;;
70026;SDS011;57506;50.092;15.804;2023-07-16T14:09:03;2.83;;;1.30;;
70026;SDS011;57506;50.092;15.804;2023-07-16T14:11:30;3.53;;;1.80;;
70026;SDS011;57506;50.092;15.804;2023-07-16T14:13:56;2.97;;;1.55;;
70026;SDS011;57506;50.092;15.804;2023-07-16T14:16:21;5.40;;;1.70;;
70026;SDS011;57506;50.092;15.804;2023-07-16T14:18:51;4.22;;;2.28;;
70026;SDS011;57506;50.092;15.804;2023-07-16T14:21:18;3.63;;;2.33;;
70026;SDS011;57506;50.092;15.804;2023-07-16T14:23:44;3.78;;;2.00;;
70026;SDS011;57506;50.092;15.804;2023-07-16T14:26:10;3.45;;;1.88;;
70026;SDS011;57506;50.092;15.804;2023-07-16T14:28:35;3.20;;;1.60;;
70026;SDS011;57506;50.092;15.804;2023-07-16T14:31:02;10.53;;;1.93;;
70026;SDS011;57506;50.092;15.804;2023-07-16T14:33:28;5.22;;;1.63;;
70026;SDS011;57506;50.092;15.804;2023-07-16T14:35:53;4.40;;;2.03;;
70026;SDS011;57506;50.092;15.804;2023-07-16T14:38:19;3.30;;;1.70;;
70026;SDS011;57506;50.092;15.804;2023-07-16T14:40:44;4.63;;;2.30;;
70026;SDS011;57506;50.092;15.804;2023-07-16T14:43:10;3.47;;;1.70;;
70026;SDS011;57506;50.092;15.804;2023-07-16T14:45:35;4.10;;;1.80;;
70026;SDS011;57506;50.092;15.804;2023-07-16T14:48:01;3.10;;;1.43;;
70026;SDS011;57506;50.092;15.804;2023-07-16T14:50:27;5.17;;;2.17;;
70026;SDS011;57506;50.092;15.804;2023-07-16T14:52:53;3.72;;;2.10;;
70026;SDS011;57506;50.092;15.804;2023-07-16T14:55:18;3.30;;;2.20;;
70026;SDS011;57506;50.092;15.804;2023-07-16T14:57:44;19.23;;;2.72;;
70026;SDS011;57506;50.092;15.804;2023-07-16T15:00:10;4.10;;;2.00;;
70026;SDS011;57506;50.092;15.804;2023-07-16T15:02:36;3.50;;;2.22;;
70026;SDS011;57506;50.092;15.804;2023-07-16T15:05:02;3.53;;;2.10;;
70026;SDS011;57506;50.092;15.804;2023-07-16T15:07:29;4.35;;;2.80;;
70026;SDS011;57506;50.092;15.804;2023-07-16T15:09:55;4.10;;;2.40;;
70026;SDS011;57506;50.092;15.804;2023-07-16T15:12:20;3.70;;;2.10;;
70026;SDS011;57506;50.092;15.804;2023-07-16T15:14:46;3.20;;;1.63;;
70026;SDS011;57506;50.092;15.804;2023-07-16T15:17:12;3.93;;;2.13;;